Time;durP1;ratioP1;P1;durP2;ratioP2;P2;SDS_P1;SDS_P2;PMS_P1;PMS_P2;Temp;Humidity;BMP_temperature;BMP_pressure;BME280_temperature;BME280_humidity;BME280_pressure;Samples;Min_cycle;Max_cycle;Signal;HPM_P1;HPM_P2
2023/02/03 00:00:53;;;;;;;14.77;4.07;;;;;;;2.43;100.00;101058.84;5044789;28;20053;-76
2023/02/03 00:03:18;;;;;;;8.80;4.13;;;;;;;2.40;100.00;101043.25;5040188;28;20037;-76
2023/02/03 00:05:45;;;;;;;15.27;4.97;;;;;;;2.36;100.00;101025.94;5041408;28;20299;-76
2023/02/03 00:08:12;;;;;;;8.80;4.20;;;;;;;2.43;100.00;101035.13;5035295;28;20024;-77
2023/02/03 00:10:38;;;;;;;13.02;5.15;;;;;;;2.48;100.00;101030.41;5034150;28;20043;-76
2023/02/03 00:13:05;;;;;;;16.77;5.50;;;;;;;2.47;100.00;101031.34;5036208;28;20505;-77
2023/02/03 00:15:30;;;;;;;11.05;4.93;;;;;;;2.45;100.00;101020.06;5032219;28;20402;-78
2023/02/03 00:17:55;;;;;;;13.93;4.47;;;;;;;2.53;100.00;101023.03;5041683;28;20033;-76
2023/02/03 00:20:21;;;;;;;17.53;5.30;;;;;;;2.60;100.00;101018.19;5033476;28;20535;-77
2023/02/03 00:22:46;;;;;;;13.68;4.50;;;;;;;2.60;100.00;101002.38;5022957;28;20463;-77
2023/02/03 00:25:12;;;;;;;10.20;4.82;;;;;;;2.68;100.00;100999.19;5039327;28;20029;-77
2023/02/03 00:27:37;;;;;;;9.73;4.20;;;;;;;2.70;100.00;100987.59;5040116;28;20033;-76
2023/02/03 00:30:04;;;;;;;11.73;4.82;;;;;;;2.76;100.00;100981.03;5036078;28;20028;-76
2023/02/03 00:32:30;;;;;;;14.20;4.97;;;;;;;2.76;100.00;100975.78;5038464;28;20044;-77
2023/02/03 00:34:55;;;;;;;9.65;4.32;;;;;;;2.78;100.00;100978.31;5020687;28;20505;-76
2023/02/03 00:37:22;;;;;;;7.90;3.50;;;;;;;2.88;100.00;100985.50;5040152;28;20465;-77
2023/02/03 00:39:47;;;;;;;;;;;;;;;3.02;100.00;100991.56;5036773;28;20574;-78
2023/02/03 00:42:12;;;;;;;10.50;4.10;;;;;;;2.96;100.00;100955.94;5040638;28;19919;-76
2023/02/03 00:44:38;;;;;;;7.10;3.90;;;;;;;3.08;100.00;100967.41;5033829;28;20053;-76
2023/02/03 00:47:03;;;;;;;7.47;4.50;;;;;;;3.09;100.00;100961.16;5046455;28;20318;-76
2023/02/03 00:49:29;;;;;;;8.30;4.20;;;;;;;3.08;100.00;100948.94;5020620;28;20040;-76
2023/02/03 00:51:54;;;;;;;10.47;4.37;;;;;;;3.11;100.00;100957.50;5035458;28;20768;-76
2023/02/03 00:54:19;;;;;;;10.10;4.37;;;;;;;3.14;100.00;100932.69;5020427;28;20772;-76
2023/02/03 00:56:45;;;;;;;7.53;4.33;;;;;;;3.21;100.00;100948.91;5021763;28;20394;-76
2023/02/03 00:59:10;;;;;;;7.50;4.35;;;;;;;3.15;100.00;100931.72;5033210;28;20033;-76
2023/02/03 01:01:36;;;;;;;8.90;4.57;;;;;;;3.31;100.00;100939.38;5024601;28;20593;-76
2023/02/03 01:04:02;;;;;;;10.50;5.60;;;;;;;3.41;100.00;100935.13;5027970;28;20488;-77
2023/02/03 01:06:28;;;;;;;11.55;5.43;;;;;;;3.50;100.00;100933.59;5041347;28;20095;-77
2023/02/03 01:08:54;;;;;;;10.48;5.38;;;;;;;3.59;100.00;100922.38;5026157;28;20490;-76
2023/02/03 01:11:22;;;;;;;11.00;5.20;;;;;;;3.72;100.00;100935.50;5043226;28;20029;-76
2023/02/03 01:13:49;;;;;;;12.48;5.93;;;;;;;3.72;100.00;100927.56;5023680;28;20144;-76
2023/02/03 01:16:17;;;;;;;18.85;7.40;;;;;;;3.85;100.00;100916.97;5039753;28;20420;-76
2023/02/03 01:18:44;;;;;;;14.98;7.55;;;;;;;3.91;100.00;100903.28;5038322;28;20041;-77
2023/02/03 01:21:13;;;;;;;18.55;8.25;;;;;;;4.01;100.00;100906.91;5032957;28;20498;-75
2023/02/03 01:23:38;;;;;;;25.67;8.70;;;;;;;4.13;100.00;100897.22;5039870;28;20036;-78
2023/02/03 01:26:06;;;;;;;27.23;8.65;;;;;;;4.22;100.00;100893.88;5040406;28;20033;-75
2023/02/03 01:28:33;;;;;;;22.27;9.50;;;;;;;4.28;100.00;100879.34;5032149;28;20041;-78
2023/02/03 01:31:09;;;;;;;19.30;8.38;;;;;;;4.33;100.00;100885.09;5035570;28;20095;-76
2023/02/03 01:33:34;;;;;;;22.20;9.25;;;;;;;4.39;100.00;100879.34;5034558;28;20122;-77
2023/02/03 01:36:01;;;;;;;29.77;10.35;;;;;;;4.46;100.00;100877.91;5020707;28;20021;-77
2023/02/03 01:38:28;;;;;;;20.65;9.00;;;;;;;4.50;100.00;100867.94;5039694;28;20037;-77
2023/02/03 01:40:53;;;;;;;23.30;8.80;;;;;;;4.54;100.00;100866.72;5037036;28;20031;-77
2023/02/03 01:43:35;;;;;;;27.67;9.10;;;;;;;4.63;100.00;100861.53;5047210;28;20121;-79
2023/02/03 01:46:16;;;;;;;28.13;10.18;;;;;;;4.73;100.00;100851.09;5023154;28;20522;-76
2023/02/03 01:48:41;;;;;;;25.77;10.05;;;;;;;4.73;100.00;100839.66;5032560;28;20029;-77
2023/02/03 01:51:06;;;;;;;26.83;10.50;;;;;;;4.78;100.00;100842.81;5030416;28;20028;-78
2023/02/03 01:53:32;;;;;;;37.83;9.87;;;;;;;4.75;100.00;100833.31;5032892;28;20272;-78
2023/02/03 01:56:00;;;;;;;27.88;9.52;;;;;;;4.84;100.00;100823.78;5027970;28;20119;-78
2023/02/03 01:58:32;;;;;;;29.98;9.20;;;;;;;4.94;100.00;100815.94;5034010;28;20152;-76
2023/02/03 02:00:58;;;;;;;41.33;9.00;;;;;;;5.04;100.00;100806.31;5019257;28;20030;-77
2023/02/03 02:03:35;;;;;;;30.10;8.38;;;;;;;5.05;100.00;100819.38;5041162;28;20038;-78
2023/02/03 02:06:04;;;;;;;39.03;9.55;;;;;;;5.13;100.00;100809.97;5027107;28;20053;-78
2023/02/03 02:08:29;;;;;;;34.63;8.93;;;;;;;5.17;100.00;100790.25;5032651;28;20056;-78
2023/02/03 02:10:56;;;;;;;;;;;;;;;5.27;100.00;100802.59;5040904;28;20396;-76
2023/02/03 02:13:22;;;;;;;19.67;7.22;;;;;;;5.24;100.00;100780.81;5032513;28;20490;-78
2023/02/03 02:15:59;;;;;;;;;;;;;;;5.34;100.00;100791.50;5025963;28;20038;-76
2023/02/03 02:18:36;;;;;;;32.88;8.85;;;;;;;5.40;100.00;100783.88;5042926;28;20296;-78
2023/02/03 02:21:26;;;;;;;28.25;8.02;;;;;;;5.42;100.00;100763.41;5025026;28;20079;-78
2023/02/03 02:24:09;;;;;;;35.58;7.95;;;;;;;5.44;100.00;100758.84;5056327;28;20072;-78
2023/02/03 02:26:40;;;;;;;32.20;8.18;;;;;;;5.55;100.00;100759.72;5037130;28;20055;-77
2023/02/03 02:29:24;;;;;;;30.95;8.00;;;;;;;5.55;100.00;100750.00;5022812;28;20037;-77
2023/02/03 02:32:05;;;;;;;45.40;8.00;;;;;;;5.55;100.00;100743.84;5046537;28;20461;-78
2023/02/03 02:34:42;;;;;;;32.75;8.07;;;;;;;5.56;100.00;100753.47;5042645;28;20498;-78
2023/02/03 02:37:18;;;;;;;28.60;6.18;;;;;;;5.60;100.00;100761.03;5040199;28;20087;-78
2023/02/03 02:39:57;;;;;;;18.55;6.13;;;;;;;5.63;100.00;100765.22;5042493;28;20512;-78
2023/02/03 02:42:49;;;;;;;26.60;7.72;;;;;;;5.65;100.00;100756.19;5034025;28;20029;-78
2023/02/03 02:45:36;;;;;;;26.73;5.75;;;;;;;5.66;100.00;100731.34;5027004;28;20029;-78
2023/02/03 02:48:10;;;;;;;26.17;6.82;;;;;;;5.66;100.00;100728.69;5044995;28;20070;-77
2023/02/03 02:50:41;;;;;;;33.72;7.35;;;;;;;5.62;100.00;100721.16;5023798;28;20458;-77
2023/02/03 02:53:10;;;;;;;21.42;6.88;;;;;;;5.64;100.00;100724.50;5042423;28;20059;-76
2023/02/03 02:55:39;;;;;;;20.90;5.57;;;;;;;5.65;100.00;100721.75;5034850;28;20123;-78
2023/02/03 02:58:10;;;;;;;27.40;5.68;;;;;;;5.60;100.00;100708.06;5042595;28;20028;-77
2023/02/03 03:00:36;;;;;;;28.02;7.22;;;;;;;5.68;100.00;100707.41;5041081;28;20071;-77
2023/02/03 03:03:17;;;;;;;23.35;5.82;;;;;;;5.66;100.00;100691.63;5044418;28;20855;-78
2023/02/03 03:05:47;;;;;;;29.98;7.65;;;;;;;5.64;100.00;100677.69;5042921;28;20450;-77
2023/02/03 03:08:19;;;;;;;25.15;5.53;;;;;;;5.62;100.00;100681.41;5038508;28;20039;-79
2023/02/03 03:10:46;;;;;;;25.80;5.80;;;;;;;5.64;100.00;100659.16;5040890;28;20037;-77
2023/02/03 03:13:19;;;;;;;27.83;6.93;;;;;;;5.65;100.00;100658.16;5035254;28;20033;-76
2023/02/03 03:15:44;;;;;;;25.17;5.43;;;;;;;5.65;100.00;100660.00;5044349;28;20060;-77
2023/02/03 03:18:22;;;;;;;32.17;6.80;;;;;;;5.70;100.00;100655.13;5038573;28;20056;-77
2023/02/03 03:20:52;;;;;;;35.45;6.55;;;;;;;5.71;100.00;100654.13;5043322;28;20068;-78
2023/02/03 03:23:30;;;;;;;21.08;5.35;;;;;;;5.67;100.00;100647.47;5022147;28;20067;-79
2023/02/03 03:26:11;;;;;;;37.95;5.55;;;;;;;5.73;100.00;100668.09;5033676;28;20382;-77
2023/02/03 03:28:47;;;;;;;22.60;6.05;;;;;;;5.71;100.00;100648.84;5051190;28;20043;-79
2023/02/03 03:31:14;;;;;;;27.23;6.13;;;;;;;5.66;100.00;100633.34;5048712;28;20032;-76
2023/02/03 03:33:40;;;;;;;26.90;4.78;;;;;;;5.61;100.00;100618.84;5034309;28;20490;-77
2023/02/03 03:36:21;;;;;;;22.90;4.80;;;;;;;5.67;100.00;100618.31;5026438;28;20063;-76
2023/02/03 03:38:59;;;;;;;23.25;4.25;;;;;;;5.72;100.00;100634.66;5028034;28;20115;-77
2023/02/03 03:41:42;;;;;;;25.25;5.72;;;;;;;5.74;100.00;100635.34;5047219;28;20112;-76
2023/02/03 03:44:11;;;;;;;18.65;4.22;;;;;;;5.76;100.00;100628.13;5036790;28;20409;-77
2023/02/03 03:46:58;;;;;;;26.50;5.00;;;;;;;5.70;100.00;100618.03;5041448;28;20476;-79
2023/02/03 03:49:26;;;;;;;17.98;5.43;;;;;;;5.67;100.00;100621.81;5028902;28;20029;-77
2023/02/03 03:51:56;;;;;;;21.63;6.90;;;;;;;5.69;100.00;100608.44;5026726;28;20056;-77
2023/02/03 03:54:24;;;;;;;16.23;4.93;;;;;;;5.70;100.00;100624.16;5036394;28;20037;-77
2023/02/03 03:57:17;;;;;;;28.63;5.50;;;;;;;5.75;100.00;100625.59;5050374;28;20045;-77
2023/02/03 03:59:47;;;;;;;25.92;5.88;;;;;;;5.70;100.00;100612.75;5046332;28;20410;-76
2023/02/03 04:02:13;;;;;;;38.28;5.95;;;;;;;5.69;100.00;100611.09;5045652;28;20064;-77
2023/02/03 04:04:39;;;;;;;;;;;;;;;5.71;100.00;100609.97;5024406;28;20040;-76
2023/02/03 04:07:05;;;;;;;24.90;7.78;;;;;;;5.69;100.00;100611.09;5042326;28;19912;-76
2023/02/03 04:09:30;;;;;;;37.00;5.28;;;;;;;5.71;100.00;100598.50;5032792;28;20215;-77
2023/02/03 04:12:02;;;;;;;33.00;6.03;;;;;;;5.68;100.00;100602.28;5020704;28;20479;-76
2023/02/03 04:14:29;;;;;;;32.53;6.32;;;;;;;5.68;100.00;100604.91;5036582;28;20033;-76
2023/02/03 04:16:56;;;;;;;30.98;5.70;;;;;;;5.72;100.00;100610.81;5042277;28;20021;-76
2023/02/03 04:19:21;;;;;;;25.17;5.05;;;;;;;5.71;100.00;100606.47;5034395;28;20439;-79
2023/02/03 04:21:46;;;;;;;26.27;4.97;;;;;;;5.65;100.00;100591.13;5041277;28;20046;-78
2023/02/03 04:24:12;;;;;;;17.73;4.40;;;;;;;5.65;100.00;100594.59;5035771;28;20067;-78
2023/02/03 04:26:38;;;;;;;23.73;4.23;;;;;;;5.63;100.00;100579.81;5039428;28;20082;-77
2023/02/03 04:29:03;;;;;;;21.02;3.88;;;;;;;5.60;100.00;100580.09;5035306;28;20098;-76
2023/02/03 04:31:28;;;;;;;20.13;3.80;;;;;;;5.62;100.00;100583.44;5033331;28;20048;-76
2023/02/03 04:33:54;;;;;;;16.07;4.00;;;;;;;5.69;100.00;100589.88;5029928;28;20285;-76
2023/02/03 04:36:19;;;;;;;16.90;3.27;;;;;;;5.63;100.00;100577.16;5036806;28;20279;-76
2023/02/03 04:38:44;;;;;;;19.23;4.67;;;;;;;5.63;100.00;100569.22;5041999;28;20040;-77
2023/02/03 04:41:10;;;;;;;22.80;6.87;;;;;;;5.64;100.00;100560.28;5035042;28;20039;-77
2023/02/03 04:43:35;;;;;;;22.07;4.47;;;;;;;5.68;100.00;100572.31;5039546;28;20663;-76
2023/02/03 04:46:01;;;;;;;12.87;3.50;;;;;;;5.63;100.00;100558.63;5035117;28;20037;-76
2023/02/03 04:48:26;;;;;;;22.77;3.87;;;;;;;5.66;100.00;100553.06;5024946;28;20079;-77
2023/02/03 04:50:52;;;;;;;16.20;4.47;;;;;;;5.66;100.00;100553.88;5042916;28;20108;-78
2023/02/03 04:53:17;;;;;;;18.50;4.25;;;;;;;5.69;100.00;100547.50;5020717;28;20067;-77
2023/02/03 04:55:46;;;;;;;15.17;4.20;;;;;;;5.71;100.00;100551.69;5020237;28;20053;-78
2023/02/03 04:58:12;;;;;;;27.25;5.43;;;;;;;5.70;100.00;100550.00;5035991;28;20030;-79
2023/02/03 05:00:37;;;;;;;22.58;5.82;;;;;;;5.70;100.00;100534.09;5036322;28;20505;-76
2023/02/03 05:03:03;;;;;;;17.97;5.07;;;;;;;5.70;100.00;100525.31;5033646;28;20032;-77
2023/02/03 05:05:28;;;;;;;21.07;6.43;;;;;;;5.79;100.00;100540.41;5024586;28;20180;-77
2023/02/03 05:07:54;;;;;;;16.63;6.03;;;;;;;5.78;100.00;100536.06;5020791;28;20087;-77
2023/02/03 05:10:19;;;;;;;19.13;5.20;;;;;;;5.71;100.00;100522.56;5033215;28;20056;-80
2023/02/03 05:12:44;;;;;;;21.15;6.18;;;;;;;5.74;100.00;100523.25;5036033;28;20029;-77
2023/02/03 05:15:10;;;;;;;25.93;6.10;;;;;;;5.71;100.00;100519.03;5033419;28;20532;-77
2023/02/03 05:17:37;;;;;;;22.90;6.07;;;;;;;5.70;100.00;100502.31;5022513;28;20485;-78
2023/02/03 05:20:03;;;;;;;26.23;5.65;;;;;;;5.78;100.00;100500.78;5042345;28;20521;-77
2023/02/03 05:22:29;;;;;;;17.23;5.55;;;;;;;5.78;100.00;100509.56;5021734;28;20025;-76
2023/02/03 05:24:54;;;;;;;27.10;6.70;;;;;;;5.74;100.00;100497.59;5051097;28;20174;-77
2023/02/03 05:27:19;;;;;;;21.77;5.30;;;;;;;5.81;100.00;100492.59;5030072;28;20032;-79
2023/02/03 05:29:45;;;;;;;23.63;6.07;;;;;;;5.78;100.00;100488.38;5045195;28;20036;-77
2023/02/03 05:32:10;;;;;;;16.00;4.23;;;;;;;5.79;100.00;100479.47;5033231;28;20036;-77
2023/02/03 05:34:35;;;;;;;27.73;5.77;;;;;;;5.71;100.00;100484.63;5020741;28;20037;-78
2023/02/03 05:37:02;;;;;;;28.03;4.57;;;;;;;5.78;100.00;100471.66;5035681;28;20098;-77
2023/02/03 05:39:28;;;;;;;18.02;4.35;;;;;;;5.76;100.00;100457.72;5032505;28;20475;-79
2023/02/03 05:41:53;;;;;;;22.50;5.68;;;;;;;5.78;100.00;100445.16;5044086;28;20028;-77
2023/02/03 05:44:21;;;;;;;24.83;4.32;;;;;;;5.78;100.00;100440.69;5036944;28;20057;-76
2023/02/03 05:46:47;;;;;;;24.70;5.15;;;;;;;5.79;100.00;100436.25;5049004;28;20500;-77
2023/02/03 05:49:12;;;;;;;15.88;4.30;;;;;;;5.78;100.00;100446.00;5029521;28;20024;-78
2023/02/03 05:51:38;;;;;;;23.48;4.55;;;;;;;5.80;100.00;100436.09;5039621;28;20056;-78
2023/02/03 05:54:04;;;;;;;23.65;5.35;;;;;;;5.80;100.00;100429.97;5035266;28;20035;-77
2023/02/03 05:56:29;;;;;;;16.92;4.80;;;;;;;5.76;100.00;100424.13;5032833;28;20048;-76
2023/02/03 05:58:55;;;;;;;17.57;4.13;;;;;;;5.78;100.00;100414.19;5038183;28;20036;-78
2023/02/03 06:01:20;;;;;;;21.88;5.40;;;;;;;5.75;100.00;100408.38;5041676;28;20025;-78
2023/02/03 06:03:46;;;;;;;14.00;4.87;;;;;;;5.77;100.00;100403.78;5035513;28;20471;-78
2023/02/03 06:06:12;;;;;;;20.17;4.97;;;;;;;5.72;100.00;100397.06;5047502;28;20118;-78
2023/02/03 06:08:37;;;;;;;23.87;5.77;;;;;;;5.80;100.00;100401.66;5038265;28;20065;-77
2023/02/03 06:11:03;;;;;;;27.17;5.60;;;;;;;5.78;100.00;100389.53;5037481;28;20025;-77
2023/02/03 06:13:28;;;;;;;21.23;5.72;;;;;;;5.63;100.00;100368.78;5022961;28;20472;-76
2023/02/03 06:15:57;;;;;;;15.57;4.73;;;;;;;5.84;100.00;100383.69;5045707;28;20035;-80
2023/02/03 06:18:22;;;;;;;21.08;4.72;;;;;;;5.84;100.00;100381.88;5041673;28;20299;-78
2023/02/03 06:20:49;;;;;;;15.50;4.60;;;;;;;5.81;100.00;100370.72;5052002;28;20041;-76
2023/02/03 06:23:16;;;;;;;20.40;4.93;;;;;;;5.76;100.00;100357.03;5043108;28;20100;-77
2023/02/03 06:25:41;;;;;;;19.75;4.30;;;;;;;5.88;100.00;100363.88;5026766;28;20832;-76
2023/02/03 06:28:07;;;;;;;16.92;4.85;;;;;;;5.89;100.00;100357.59;5040906;28;20037;-79
2023/02/03 06:30:32;;;;;;;13.77;3.60;;;;;;;5.88;100.00;100354.13;5048339;28;20045;-77
2023/02/03 06:32:57;;;;;;;22.10;4.93;;;;;;;5.89;100.00;100331.09;5045229;28;20074;-77
2023/02/03 06:35:23;;;;;;;19.90;4.73;;;;;;;5.90;100.00;100343.38;5046038;28;20029;-78
2023/02/03 06:37:48;;;;;;;30.43;7.30;;;;;;;5.85;100.00;100332.34;5043956;28;20687;-75
2023/02/03 06:40:13;;;;;;;21.47;6.27;;;;;;;5.89;100.00;100326.63;5036895;28;20458;-77
2023/02/03 06:42:39;;;;;;;30.60;6.80;;;;;;;5.91;100.00;100331.81;5036276;28;20561;-78
2023/02/03 06:45:05;;;;;;;30.70;7.90;;;;;;;5.96;100.00;100336.72;5022900;28;20466;-77
2023/02/03 06:47:30;;;;;;;34.90;7.13;;;;;;;6.00;100.00;100356.66;5042953;28;20033;-77
2023/02/03 06:49:55;;;;;;;29.80;7.63;;;;;;;6.00;100.00;100346.06;5045543;28;20093;-77
2023/02/03 06:52:21;;;;;;;27.00;5.97;;;;;;;6.00;100.00;100343.41;5042857;28;20036;-76
2023/02/03 06:54:46;;;;;;;19.90;5.47;;;;;;;6.03;100.00;100337.81;5039192;28;20041;-76
2023/02/03 06:57:11;;;;;;;34.00;7.10;;;;;;;6.06;100.00;100338.38;5041964;28;20094;-78
2023/02/03 06:59:37;;;;;;;35.20;6.63;;;;;;;6.08;100.00;100336.38;5036076;28;20076;-77
2023/02/03 07:02:02;;;;;;;25.57;6.77;;;;;;;6.10;100.00;100338.91;5025388;28;20029;-77
2023/02/03 07:04:29;;;;;;;16.27;6.57;;;;;;;6.07;100.00;100312.69;5047036;28;20041;-77
2023/02/03 07:06:54;;;;;;;;;;;;;;;6.17;100.00;100352.41;5037898;28;20271;-77
2023/02/03 07:09:20;;;;;;;23.83;6.88;;;;;;;6.09;100.00;100342.53;5035847;28;19916;-76
2023/02/03 07:11:45;;;;;;;20.40;3.97;;;;;;;6.16;100.00;100348.09;5032565;28;20064;-78
2023/02/03 07:14:10;;;;;;;27.43;4.67;;;;;;;6.17;100.00;100363.84;5047414;28;20108;-77
2023/02/03 07:16:36;;;;;;;16.37;3.20;;;;;;;6.19;100.00;100369.84;5036830;28;20777;-79
2023/02/03 07:19:02;;;;;;;20.73;3.08;;;;;;;6.06;100.00;100361.34;5046426;28;20036;-77
2023/02/03 07:21:27;;;;;;;16.80;3.20;;;;;;;6.02;100.00;100357.34;5040942;28;20037;-78
2023/02/03 07:23:52;;;;;;;12.53;3.90;;;;;;;6.03;100.00;100349.22;5040219;28;20517;-78
2023/02/03 07:26:18;;;;;;;23.27;4.60;;;;;;;5.98;100.00;100358.59;5026385;28;20116;-78
2023/02/03 07:28:44;;;;;;;30.60;5.72;;;;;;;5.96;100.00;100347.31;5036901;28;20044;-78
2023/02/03 07:31:09;;;;;;;19.40;3.88;;;;;;;5.91;100.00;100343.22;5024666;28;20033;-78
2023/02/03 07:33:35;;;;;;;18.27;4.30;;;;;;;5.89;100.00;100326.63;5048808;28;20079;-76
2023/02/03 07:36:02;;;;;;;17.83;4.25;;;;;;;5.96;100.00;100355.25;5055676;28;20556;-78
2023/02/03 07:38:28;;;;;;;19.33;3.58;;;;;;;5.92;100.00;100321.06;5025585;28;20040;-79
2023/02/03 07:40:54;;;;;;;18.92;2.67;;;;;;;5.92;100.00;100342.28;5039149;28;20170;-77
2023/02/03 07:43:19;;;;;;;19.08;3.00;;;;;;;5.91;100.00;100303.47;5034368;28;20041;-77
2023/02/03 07:45:45;;;;;;;16.27;3.10;;;;;;;5.84;100.00;100302.38;5028207;28;20064;-78
2023/02/03 07:48:11;;;;;;;21.97;4.37;;;;;;;5.82;100.00;100283.16;5025335;28;20035;-76
2023/02/03 07:50:38;;;;;;;16.05;3.38;;;;;;;5.90;100.00;100296.53;5048929;28;20478;-78
2023/02/03 07:53:03;;;;;;;;;;;;;;;5.88;100.00;100311.72;5020849;28;20502;-77
2023/02/03 07:55:28;;;;;;;27.13;4.70;;;;;;;5.97;100.00;100296.81;5043497;28;19916;-77
2023/02/03 07:57:55;;;;;;;22.20;4.55;;;;;;;5.99;100.00;100288.72;5029779;28;20025;-77
2023/02/03 08:00:21;;;;;;;20.38;4.70;;;;;;;5.99;100.00;100278.13;5052949;28;20463;-77
2023/02/03 08:02:46;;;;;;;25.67;4.75;;;;;;;6.05;100.00;100304.06;5058356;28;20040;-77
2023/02/03 08:05:12;;;;;;;46.65;7.55;;;;;;;6.08;100.00;100311.69;5054698;28;20048;-78
2023/02/03 08:07:40;;;;;;;29.00;6.22;;;;;;;6.14;100.00;100340.28;5044110;28;20064;-78
2023/02/03 08:10:06;;;;;;;36.72;7.85;;;;;;;6.15;100.00;100338.47;5026805;28;20033;-79
2023/02/03 08:12:32;;;;;;;60.58;9.82;;;;;;;6.12;100.00;100336.94;5047532;28;20037;-78
2023/02/03 08:14:57;;;;;;;38.85;8.23;;;;;;;6.15;100.00;100310.13;5047103;28;20032;-77
2023/02/03 08:17:23;;;;;;;38.37;7.27;;;;;;;6.23;100.00;100334.13;5063449;28;20040;-78
2023/02/03 08:19:48;;;;;;;48.60;10.07;;;;;;;6.17;100.00;100340.00;5064858;28;20040;-76
2023/02/03 08:22:16;;;;;;;47.67;6.77;;;;;;;6.15;100.00;100311.97;5040204;28;20072;-77
2023/02/03 08:24:44;;;;;;;45.25;8.27;;;;;;;6.16;100.00;100306.53;5024439;28;20128;-76
2023/02/03 08:27:15;;;;;;;43.17;9.20;;;;;;;6.12;100.00;100311.28;5043064;28;20032;-78
2023/02/03 08:29:42;;;;;;;50.83;8.10;;;;;;;6.12;100.00;100305.13;5033675;28;20029;-79
2023/02/03 08:32:12;;;;;;;38.35;8.60;;;;;;;6.11;100.00;100308.75;5011809;28;20124;-79
2023/02/03 08:34:38;;;;;;;36.10;6.93;;;;;;;6.15;100.00;100301.38;5033934;28;20030;-79
2023/02/03 08:37:04;;;;;;;40.00;7.90;;;;;;;6.23;100.00;100301.50;5041290;28;20037;-80
2023/02/03 08:39:31;;;;;;;;;;;;;;;6.21;100.00;100314.88;4984583;28;20070;-76
2023/02/03 08:41:57;;;;;;;45.65;8.35;;;;;;;6.16;100.00;100316.28;5037381;28;19924;-76
2023/02/03 08:44:22;;;;;;;43.70;8.50;;;;;;;6.13;100.00;100320.91;5026956;28;20041;-77
2023/02/03 08:46:49;;;;;;;34.43;8.10;;;;;;;6.15;100.00;100314.63;5026894;28;20097;-79
2023/02/03 08:49:15;;;;;;;47.03;10.30;;;;;;;6.10;100.00;100307.94;5038369;28;20112;-78
2023/02/03 08:51:40;;;;;;;47.73;8.60;;;;;;;6.09;100.00;100308.09;5024377;28;20542;-78
2023/02/03 08:54:05;;;;;;;52.87;8.97;;;;;;;6.02;100.00;100325.53;5022233;28;20044;-79
2023/02/03 08:56:32;;;;;;;41.07;8.37;;;;;;;5.96;100.00;100329.59;5031352;28;20037;-77
2023/02/03 08:58:58;;;;;;;43.45;7.85;;;;;;;6.09;100.00;100324.81;5030478;28;20192;-78
2023/02/03 09:01:23;;;;;;;49.70;10.65;;;;;;;6.09;100.00;100337.25;5039963;28;20101;-77
2023/02/03 09:03:49;;;;;;;68.73;9.23;;;;;;;6.15;100.00;100319.91;5023203;28;20033;-75
2023/02/03 09:06:15;;;;;;;44.65;7.03;;;;;;;6.04;100.00;100284.66;5041965;28;20041;-78
2023/02/03 09:08:42;;;;;;;43.13;9.02;;;;;;;6.05;100.00;100285.50;5041714;28;20100;-77
2023/02/03 09:11:10;;;;;;;40.95;7.18;;;;;;;6.10;100.00;100283.25;5036335;28;20041;-76
2023/02/03 09:13:36;;;;;;;42.17;9.43;;;;;;;6.15;100.00;100274.84;5037454;28;20087;-77
2023/02/03 09:16:01;;;;;;;51.83;8.80;;;;;;;6.13;100.00;100259.09;5040987;28;20020;-78
2023/02/03 09:18:27;;;;;;;46.77;9.40;;;;;;;6.22;100.00;100260.03;5036040;28;20043;-77
2023/02/03 09:20:59;;;;;;;40.50;7.03;;;;;;;6.26;100.00;100211.88;5029838;28;20549;-77
2023/02/03 09:23:25;;;;;;;48.47;7.85;;;;;;;6.21;100.00;100198.25;5028191;28;20438;-79
2023/02/03 09:25:50;;;;;;;42.90;8.63;;;;;;;6.29;100.00;100174.47;5037391;28;20064;-79
2023/02/03 09:28:15;;;;;;;51.70;9.17;;;;;;;6.30;100.00;100165.53;5054764;28;20553;-76
2023/02/03 09:30:41;;;;;;;45.53;9.20;;;;;;;6.23;100.00;100153.03;5039022;28;20045;-79
2023/02/03 09:33:06;;;;;;;40.10;9.20;;;;;;;6.30;100.00;100139.03;5027957;28;20040;-76
2023/02/03 09:35:31;;;;;;;49.67;8.20;;;;;;;6.29;100.00;100121.44;5046353;28;20033;-75
2023/02/03 09:37:57;;;;;;;51.27;10.57;;;;;;;6.29;100.00;100121.44;5025120;28;20029;-77
2023/02/03 09:40:29;;;;;;;55.08;9.55;;;;;;;6.33;100.00;100133.41;5036051;28;20025;-80
2023/02/03 09:43:31;;;;;;;61.15;10.68;;;;;;;6.44;100.00;100139.47;5026650;28;20041;-79
2023/02/03 09:46:12;;;;;;;50.38;8.98;;;;;;;6.49;100.00;100097.44;5019875;28;20513;-77
2023/02/03 09:48:43;;;;;;;46.38;8.52;;;;;;;6.59;100.00;100078.81;5027942;28;20051;-80
2023/02/03 09:51:21;;;;;;;44.40;9.65;;;;;;;6.86;100.00;100085.81;5043418;28;20051;-78
2023/02/03 09:53:53;;;;;;;60.95;10.77;;;;;;;7.05;100.00;100080.31;5037397;28;20465;-79
2023/02/03 09:56:31;;;;;;;55.05;10.77;;;;;;;7.02;100.00;100021.38;5035014;28;20033;-79
2023/02/03 09:58:57;;;;;;;61.08;9.50;;;;;;;6.79;100.00;99999.84;5026895;28;20127;-76
2023/02/03 10:01:26;;;;;;;50.67;9.95;;;;;;;6.71;100.00;99961.66;5025619;28;20158;-76
2023/02/03 10:04:03;;;;;;;59.30;11.30;;;;;;;6.64;100.00;99917.38;5029793;28;20037;-78
2023/02/03 10:06:45;;;;;;;68.88;9.57;;;;;;;6.53;100.00;99969.69;5042894;28;20098;-80
2023/02/03 10:09:33;;;;;;;56.10;8.52;;;;;;;6.26;100.00;100026.31;5037258;28;20029;-79
2023/02/03 10:12:21;;;;;;;50.80;10.13;;;;;;;5.97;100.00;100132.53;5041461;28;20090;-78
2023/02/03 10:15:10;;;;;;;42.67;8.65;;;;;;;5.76;100.00;100222.81;5047359;28;20037;-76
2023/02/03 10:17:45;;;;;;;45.72;7.93;;;;;;;5.65;100.00;100270.66;5039400;28;20033;-79
2023/02/03 10:20:20;;;;;;;41.08;8.60;;;;;;;5.68;100.00;100315.38;5037178;28;20033;-79
2023/02/03 10:22:56;;;;;;;40.28;7.18;;;;;;;5.67;100.00;100290.72;5039881;28;20041;-79
2023/02/03 10:25:30;;;;;;;;;;;;;;;5.72;100.00;100293.75;5031690;28;20036;-78
2023/02/03 10:28:00;;;;;;;27.48;6.82;;;;;;;5.72;100.00;100296.41;5042936;28;20514;-80
2023/02/03 10:30:30;;;;;;;30.23;6.10;;;;;;;5.79;100.00;100272.84;5026875;28;20043;-78
2023/02/03 10:33:09;;;;;;;31.92;5.53;;;;;;;5.78;100.00;100218.19;5038413;28;20548;-76
2023/02/03 10:35:58;;;;;;;37.65;7.70;;;;;;;5.73;100.00;100231.03;5029839;28;20586;-80
2023/02/03 10:38:49;;;;;;;29.83;6.40;;;;;;;5.62;100.00;100253.22;5028896;28;20478;-79
2023/02/03 10:41:16;;;;;;;42.95;7.18;;;;;;;5.55;100.00;100253.91;5035348;28;20503;-77
2023/02/03 10:43:51;;;;;;;37.28;7.18;;;;;;;5.52;100.00;100312.47;5030705;28;20510;-78
2023/02/03 10:46:32;;;;;;;31.58;7.32;;;;;;;5.45;100.00;100346.59;5044306;28;20037;-75
2023/02/03 10:48:58;;;;;;;41.45;8.25;;;;;;;5.45;100.00;100402.22;5027146;28;20033;-76
2023/02/03 10:51:31;;;;;;;36.92;7.85;;;;;;;5.45;100.00;100404.84;5048640;28;20037;-79
2023/02/03 10:53:59;;;;;;;47.75;7.20;;;;;;;5.40;100.00;100442.34;5050726;28;20044;-79
2023/02/03 10:56:29;;;;;;;44.85;8.40;;;;;;;5.43;100.00;100481.78;5066625;28;20498;-78
2023/02/03 10:58:57;;;;;;;44.40;9.15;;;;;;;5.51;100.00;100502.28;5047689;28;20478;-79
2023/02/03 11:01:45;;;;;;;55.03;10.00;;;;;;;5.55;100.00;100513.44;5052812;28;20048;-78
2023/02/03 11:04:31;;;;;;;52.80;9.35;;;;;;;5.68;100.00;100498.13;5053762;28;20055;-78
2023/02/03 11:07:00;;;;;;;54.83;9.80;;;;;;;5.73;100.00;100482.66;5049409;28;20048;-79
2023/02/03 11:09:41;;;;;;;49.80;9.07;;;;;;;5.83;100.00;100470.28;5036721;28;20048;-79
2023/02/03 11:12:14;;;;;;;63.40;10.65;;;;;;;5.86;100.00;100402.94;5055798;28;20025;-75
2023/02/03 11:14:51;;;;;;;57.97;8.95;;;;;;;5.98;100.00;100350.66;5048574;28;20045;-79
2023/02/03 11:17:29;;;;;;;46.33;9.27;;;;;;;6.12;100.00;100311.28;5059851;28;20029;-75
2023/02/03 11:20:15;;;;;;;41.08;9.48;;;;;;;6.29;100.00;100158.56;5034797;28;20559;-77
2023/02/03 11:22:43;;;;;;;35.63;7.93;;;;;;;6.32;100.00;100086.69;5052427;28;20036;-78
2023/02/03 11:25:35;;;;;;;41.15;8.85;;;;;;;6.45;100.00;100024.50;5064101;28;20501;-77
2023/02/03 11:28:06;;;;;;;48.75;8.27;;;;;;;6.46;100.00;99943.94;5040696;28;20036;-77